sensor_id;sensor_type;location;lat;lon;timestamp;pressure;altitude;pressure_sealevel;temperature;humidity
70256;BME280;57669;52.624;-1.688;2022-08-21T00:00:13;100831.40;;;15.74;50.69
70256;BME280;57669;52.624;-1.688;2022-08-21T00:02:34;100829.68;;;15.07;52.08
70256;BME280;57669;52.624;-1.688;2022-08-21T00:04:59;100824.62;;;15.59;51.17
70256;BME280;57669;52.624;-1.688;2022-08-21T00:07:25;100827.03;;;15.55;51.30
70256;BME280;57669;52.624;-1.688;2022-08-21T00:09:51;100828.20;;;15.50;51.29
70256;BME280;57669;52.624;-1.688;2022-08-21T00:12:16;100823.00;;;15.30;51.27
70256;BME280;57669;52.624;-1.688;2022-08-21T00:14:42;100823.04;;;15.60;51.29
70256;BME280;57669;52.624;-1.688;2022-08-21T00:17:08;100824.28;;;15.20;52.03
70256;BME280;57669;52.624;-1.688;2022-08-21T00:19:33;100822.28;;;15.37;51.77
70256;BME280;57669;52.624;-1.688;2022-08-21T00:21:59;100824.37;;;14.73;52.05
70256;BME280;57669;52.624;-1.688;2022-08-21T00:24:26;100819.59;;;15.89;50.53
70256;BME280;57669;52.624;-1.688;2022-08-21T00:26:50;100819.48;;;15.84;50.16
70256;BME280;57669;52.624;-1.688;2022-08-21T00:29:16;100818.00;;;15.41;50.45
70256;BME280;57669;52.624;-1.688;2022-08-21T00:31:42;100818.21;;;15.63;50.99
70256;BME280;57669;52.624;-1.688;2022-08-21T00:34:08;100820.01;;;14.90;52.53
70256;BME280;57669;52.624;-1.688;2022-08-21T00:36:33;100813.30;;;15.47;51.29
70256;BME280;57669;52.624;-1.688;2022-08-21T00:38:59;100810.53;;;15.27;51.71
70256;BME280;57669;52.624;-1.688;2022-08-21T00:41:24;100806.16;;;15.73;50.72
70256;BME280;57669;52.624;-1.688;2022-08-21T00:43:50;100809.72;;;15.30;50.92
70256;BME280;57669;52.624;-1.688;2022-08-21T00:46:15;100804.45;;;15.28;50.95
70256;BME280;57669;52.624;-1.688;2022-08-21T00:48:41;100804.44;;;15.26;51.57
70256;BME280;57669;52.624;-1.688;2022-08-21T00:51:10;100808.96;;;14.63;52.23
70256;BME280;57669;52.624;-1.688;2022-08-21T00:53:33;100809.37;;;14.95;52.31
70256;BME280;57669;52.624;-1.688;2022-08-21T00:56:00;100812.91;;;15.02;52.14
70256;BME280;57669;52.624;-1.688;2022-08-21T00:58:24;100810.51;;;15.22;51.76
70256;BME280;57669;52.624;-1.688;2022-08-21T01:00:52;100815.76;;;14.98;52.07
70256;BME280;57669;52.624;-1.688;2022-08-21T01:03:17;100811.79;;;15.25;51.85
70256;BME280;57669;52.624;-1.688;2022-08-21T01:05:41;100807.87;;;15.45;50.84
70256;BME280;57669;52.624;-1.688;2022-08-21T01:08:07;100810.46;;;15.39;51.50
70256;BME280;57669;52.624;-1.688;2022-08-21T01:10:32;100809.87;;;15.09;52.23
70256;BME280;57669;52.624;-1.688;2022-08-21T01:12:58;100810.86;;;15.74;50.84
70256;BME280;57669;52.624;-1.688;2022-08-21T01:15:25;100809.91;;;15.24;51.85
70256;BME280;57669;52.624;-1.688;2022-08-21T01:17:50;100812.11;;;15.18;52.01
70256;BME280;57669;52.624;-1.688;2022-08-21T01:20:14;100810.39;;;14.81;53.24
70256;BME280;57669;52.624;-1.688;2022-08-21T01:22:40;100811.79;;;14.29;54.47
70256;BME280;57669;52.624;-1.688;2022-08-21T01:25:11;100810.44;;;14.86;52.88
70256;BME280;57669;52.624;-1.688;2022-08-21T01:27:31;100814.94;;;14.66;53.12
70256;BME280;57669;52.624;-1.688;2022-08-21T01:29:59;100814.64;;;15.49;51.53
70256;BME280;57669;52.624;-1.688;2022-08-21T01:32:23;100818.80;;;14.95;52.54
70256;BME280;57669;52.624;-1.688;2022-08-21T01:34:49;100821.01;;;14.50;53.02
70256;BME280;57669;52.624;-1.688;2022-08-21T01:37:14;100824.33;;;14.93;52.75
70256;BME280;57669;52.624;-1.688;2022-08-21T01:39:40;100827.03;;;15.43;51.67
70256;BME280;57669;52.624;-1.688;2022-08-21T01:42:06;100823.38;;;14.17;54.22
70256;BME280;57669;52.624;-1.688;2022-08-21T01:44:32;100829.19;;;15.25;52.13
70256;BME280;57669;52.624;-1.688;2022-08-21T01:46:59;100826.76;;;14.98;52.66
70256;BME280;57669;52.624;-1.688;2022-08-21T01:49:22;100823.99;;;15.13;51.81
70256;BME280;57669;52.624;-1.688;2022-08-21T01:51:48;100821.51;;;15.34;51.29
70256;BME280;57669;52.624;-1.688;2022-08-21T01:56:43;100828.30;;;15.69;50.51
70256;BME280;57669;52.624;-1.688;2022-08-21T01:59:05;100833.75;;;14.83;52.20
70256;BME280;57669;52.624;-1.688;2022-08-21T02:01:31;100832.94;;;15.17;51.59
70256;BME280;57669;52.624;-1.688;2022-08-21T02:03:56;100829.75;;;15.04;51.48
70256;BME280;57669;52.624;-1.688;2022-08-21T02:06:22;100831.60;;;15.17;51.09
70256;BME280;57669;52.624;-1.688;2022-08-21T02:08:47;100834.00;;;15.68;50.50
70256;BME280;57669;52.624;-1.688;2022-08-21T02:11:14;100838.92;;;15.76;49.91
70256;BME280;57669;52.624;-1.688;2022-08-21T02:13:39;100841.88;;;15.99;49.87
70256;BME280;57669;52.624;-1.688;2022-08-21T02:16:05;100839.34;;;15.88;49.07
70256;BME280;57669;52.624;-1.688;2022-08-21T02:18:30;100839.76;;;15.98;49.43
70256;BME280;57669;52.624;-1.688;2022-08-21T02:20:56;100843.17;;;16.03;48.89
70256;BME280;57669;52.624;-1.688;2022-08-21T02:23:22;100838.76;;;16.15;48.96
70256;BME280;57669;52.624;-1.688;2022-08-21T02:25:47;100842.53;;;15.72;48.90
70256;BME280;57669;52.624;-1.688;2022-08-21T02:28:14;100840.54;;;15.94;49.45
70256;BME280;57669;52.624;-1.688;2022-08-21T02:30:41;100838.07;;;15.75;48.86
70256;BME280;57669;52.624;-1.688;2022-08-21T02:35:30;100831.24;;;16.18;47.84
70256;BME280;57669;52.624;-1.688;2022-08-21T02:37:58;100833.57;;;16.65;46.89
70256;BME280;57669;52.624;-1.688;2022-08-21T02:40:23;100838.30;;;16.55;47.07
70256;BME280;57669;52.624;-1.688;2022-08-21T02:42:46;100835.43;;;16.75;46.57
70256;BME280;57669;52.624;-1.688;2022-08-21T02:45:13;100829.29;;;16.95;46.19
70256;BME280;57669;52.624;-1.688;2022-08-21T02:47:37;100833.14;;;16.39;47.80
70256;BME280;57669;52.624;-1.688;2022-08-21T02:50:04;100833.11;;;15.90;48.28
70256;BME280;57669;52.624;-1.688;2022-08-21T02:52:28;100830.06;;;16.46;47.04
70256;BME280;57669;52.624;-1.688;2022-08-21T02:54:54;100828.96;;;15.98;48.10
70256;BME280;57669;52.624;-1.688;2022-08-21T02:57:20;100826.11;;;16.07;47.55
70256;BME280;57669;52.624;-1.688;2022-08-21T02:59:45;100822.22;;;16.39;47.44
70256;BME280;57669;52.624;-1.688;2022-08-21T03:02:11;100818.70;;;16.11;47.76
70256;BME280;57669;52.624;-1.688;2022-08-21T03:04:37;100814.29;;;16.63;46.75
70256;BME280;57669;52.624;-1.688;2022-08-21T03:07:03;100813.90;;;16.26;47.56
70256;BME280;57669;52.624;-1.688;2022-08-21T03:09:28;100809.56;;;16.71;46.76
70256;BME280;57669;52.624;-1.688;2022-08-21T03:11:54;100810.18;;;15.54;48.96
70256;BME280;57669;52.624;-1.688;2022-08-21T03:16:45;100812.96;;;16.43;47.25
70256;BME280;57669;52.624;-1.688;2022-08-21T03:19:11;100813.91;;;16.67;46.64
70256;BME280;57669;52.624;-1.688;2022-08-21T03:21:36;100819.80;;;16.53;46.98
70256;BME280;57669;52.624;-1.688;2022-08-21T03:24:02;100820.12;;;17.28;45.70
70256;BME280;57669;52.624;-1.688;2022-08-21T03:26:27;100816.85;;;17.10;45.93
70256;BME280;57669;52.624;-1.688;2022-08-21T03:28:53;100816.25;;;17.04;46.05
70256;BME280;57669;52.624;-1.688;2022-08-21T03:31:19;100814.55;;;17.68;45.75
70256;BME280;57669;52.624;-1.688;2022-08-21T03:33:44;100811.17;;;16.92;46.17
70256;BME280;57669;52.624;-1.688;2022-08-21T03:36:10;100807.43;;;17.19;45.83
70256;BME280;57669;52.624;-1.688;2022-08-21T03:38:37;100808.16;;;16.44;46.60
70256;BME280;57669;52.624;-1.688;2022-08-21T03:41:02;100809.69;;;16.46;46.57
70256;BME280;57669;52.624;-1.688;2022-08-21T03:43:27;100805.49;;;16.57;46.66
70256;BME280;57669;52.624;-1.688;2022-08-21T03:45:52;100809.42;;;16.00;47.93
70256;BME280;57669;52.624;-1.688;2022-08-21T03:48:18;100805.31;;;16.71;46.65
70256;BME280;57669;52.624;-1.688;2022-08-21T03:50:44;100810.43;;;16.07;47.79
70256;BME280;57669;52.624;-1.688;2022-08-21T03:53:11;100809.79;;;15.81;48.25
70256;BME280;57669;52.624;-1.688;2022-08-21T03:55:35;100806.34;;;16.19;47.59
70256;BME280;57669;52.624;-1.688;2022-08-21T03:58:01;100798.70;;;16.42;47.71
70256;BME280;57669;52.624;-1.688;2022-08-21T04:00:26;100797.19;;;16.37;47.58
70256;BME280;57669;52.624;-1.688;2022-08-21T04:02:52;100800.83;;;15.87;48.17
70256;BME280;57669;52.624;-1.688;2022-08-21T04:05:19;100799.42;;;15.69;48.56
70256;BME280;57669;52.624;-1.688;2022-08-21T04:07:44;100793.21;;;16.57;46.77
70256;BME280;57669;52.624;-1.688;2022-08-21T04:10:09;100803.87;;;16.48;46.85
70256;BME280;57669;52.624;-1.688;2022-08-21T04:12:34;100807.33;;;16.18;47.37
70256;BME280;57669;52.624;-1.688;2022-08-21T04:15:00;100809.59;;;16.32;47.17
70256;BME280;57669;52.624;-1.688;2022-08-21T04:17:26;100809.86;;;16.40;47.16
70256;BME280;57669;52.624;-1.688;2022-08-21T04:19:51;100814.88;;;15.79;48.83
70256;BME280;57669;52.624;-1.688;2022-08-21T04:22:17;100815.01;;;15.26;50.71
70256;BME280;57669;52.624;-1.688;2022-08-21T04:24:43;100816.36;;;14.78;51.82
70256;BME280;57669;52.624;-1.688;2022-08-21T04:27:09;100809.45;;;15.05;50.87
70256;BME280;57669;52.624;-1.688;2022-08-21T04:29:34;100813.48;;;15.49;49.95
70256;BME280;57669;52.624;-1.688;2022-08-21T04:32:00;100812.35;;;15.67;49.69
70256;BME280;57669;52.624;-1.688;2022-08-21T04:34:25;100818.02;;;14.81;51.89
70256;BME280;57669;52.624;-1.688;2022-08-21T04:36:51;100817.88;;;15.18;50.72
70256;BME280;57669;52.624;-1.688;2022-08-21T04:39:16;100818.75;;;15.25;50.10
70256;BME280;57669;52.624;-1.688;2022-08-21T04:41:42;100821.47;;;14.58;51.51
70256;BME280;57669;52.624;-1.688;2022-08-21T04:44:08;100824.81;;;15.44;50.28
70256;BME280;57669;52.624;-1.688;2022-08-21T04:46:34;100821.09;;;15.38;50.48
70256;BME280;57669;52.624;-1.688;2022-08-21T04:48:59;100828.69;;;15.18;51.40
70256;BME280;57669;52.624;-1.688;2022-08-21T04:51:29;100828.81;;;15.21;51.43
70256;BME280;57669;52.624;-1.688;2022-08-21T04:53:53;100828.69;;;14.94;51.66
70256;BME280;57669;52.624;-1.688;2022-08-21T04:56:20;100832.75;;;14.92;51.82
70256;BME280;57669;52.624;-1.688;2022-08-21T04:58:43;100834.31;;;15.18;51.22
70256;BME280;57669;52.624;-1.688;2022-08-21T05:01:12;100835.66;;;15.78;50.43
70256;BME280;57669;52.624;-1.688;2022-08-21T05:03:34;100849.57;;;14.88;51.98
70256;BME280;57669;52.624;-1.688;2022-08-21T05:05:59;100848.78;;;14.74;52.32
70256;BME280;57669;52.624;-1.688;2022-08-21T05:08:27;100844.76;;;14.82;52.62
70256;BME280;57669;52.624;-1.688;2022-08-21T05:10:51;100848.96;;;15.00;52.29
70256;BME280;57669;52.624;-1.688;2022-08-21T05:13:16;100852.17;;;13.96;54.46
70256;BME280;57669;52.624;-1.688;2022-08-21T05:15:41;100855.58;;;14.90;52.00
70256;BME280;57669;52.624;-1.688;2022-08-21T05:18:06;100853.50;;;15.73;50.27
70256;BME280;57669;52.624;-1.688;2022-08-21T05:20:32;100853.45;;;14.27;53.49
70256;BME280;57669;52.624;-1.688;2022-08-21T05:22:58;100858.67;;;14.58;52.85
70256;BME280;57669;52.624;-1.688;2022-08-21T05:25:24;100855.62;;;15.24;51.34
70256;BME280;57669;52.624;-1.688;2022-08-21T05:27:49;100854.49;;;15.16;51.53
70256;BME280;57669;52.624;-1.688;2022-08-21T05:30:15;100859.56;;;14.10;53.63
70256;BME280;57669;52.624;-1.688;2022-08-21T05:32:41;100861.56;;;15.28;51.40
70256;BME280;57669;52.624;-1.688;2022-08-21T05:35:07;100862.82;;;14.79;52.41
70256;BME280;57669;52.624;-1.688;2022-08-21T05:37:33;100861.60;;;15.44;51.51
70256;BME280;57669;52.624;-1.688;2022-08-21T05:39:58;100867.05;;;15.70;50.29
70256;BME280;57669;52.624;-1.688;2022-08-21T05:42:24;100868.80;;;15.69;50.42
70256;BME280;57669;52.624;-1.688;2022-08-21T05:44:49;100872.04;;;14.72;51.92
70256;BME280;57669;52.624;-1.688;2022-08-21T05:47:15;100862.83;;;15.38;50.83
70256;BME280;57669;52.624;-1.688;2022-08-21T05:49:41;100864.41;;;15.37;50.94
70256;BME280;57669;52.624;-1.688;2022-08-21T05:52:06;100869.99;;;15.61;50.99
70256;BME280;57669;52.624;-1.688;2022-08-21T05:54:32;100876.64;;;14.91;52.50
70256;BME280;57669;52.624;-1.688;2022-08-21T05:56:58;100877.62;;;14.80;52.82
70256;BME280;57669;52.624;-1.688;2022-08-21T05:59:23;100882.47;;;14.63;53.22
70256;BME280;57669;52.624;-1.688;2022-08-21T06:01:49;100885.87;;;14.68;53.70
70256;BME280;57669;52.624;-1.688;2022-08-21T06:04:15;100890.32;;;13.36;57.00
70256;BME280;57669;52.624;-1.688;2022-08-21T06:06:40;100891.42;;;14.15;55.03
70256;BME280;57669;52.624;-1.688;2022-08-21T06:09:06;100890.36;;;14.08;55.40
70256;BME280;57669;52.624;-1.688;2022-08-21T06:11:33;100887.67;;;14.64;55.26
70256;BME280;57669;52.624;-1.688;2022-08-21T06:13:58;100886.41;;;14.48;55.62
70256;BME280;57669;52.624;-1.688;2022-08-21T06:16:23;100886.15;;;14.53;54.44
70256;BME280;57669;52.624;-1.688;2022-08-21T06:18:49;100887.59;;;13.94;56.58
70256;BME280;57669;52.624;-1.688;2022-08-21T06:21:14;100891.22;;;13.51;58.74
70256;BME280;57669;52.624;-1.688;2022-08-21T06:23:40;100889.68;;;14.26;56.72
70256;BME280;57669;52.624;-1.688;2022-08-21T06:26:07;100893.47;;;13.86;57.14
70256;BME280;57669;52.624;-1.688;2022-08-21T06:28:31;100895.05;;;14.28;56.79
70256;BME280;57669;52.624;-1.688;2022-08-21T06:30:56;100887.71;;;13.69;57.83
70256;BME280;57669;52.624;-1.688;2022-08-21T06:33:22;100887.71;;;14.72;55.71
70256;BME280;57669;52.624;-1.688;2022-08-21T06:38:19;100891.82;;;13.78;58.45
70256;BME280;57669;52.624;-1.688;2022-08-21T06:40:39;100898.07;;;13.17;59.78
70256;BME280;57669;52.624;-1.688;2022-08-21T06:43:06;100892.61;;;14.31;58.09
70256;BME280;57669;52.624;-1.688;2022-08-21T06:45:30;100894.45;;;14.01;58.47
70256;BME280;57669;52.624;-1.688;2022-08-21T06:47:56;100894.80;;;14.46;57.41
70256;BME280;57669;52.624;-1.688;2022-08-21T06:50:22;100892.51;;;14.33;56.61
70256;BME280;57669;52.624;-1.688;2022-08-21T06:52:47;100882.58;;;14.10;57.26
70256;BME280;57669;52.624;-1.688;2022-08-21T06:55:12;100879.32;;;14.41;57.18
70256;BME280;57669;52.624;-1.688;2022-08-21T06:57:38;100878.41;;;14.57;57.45
70256;BME280;57669;52.624;-1.688;2022-08-21T07:00:06;100881.20;;;14.53;56.49
70256;BME280;57669;52.624;-1.688;2022-08-21T07:02:29;100877.51;;;14.56;57.31
70256;BME280;57669;52.624;-1.688;2022-08-21T07:04:55;100875.57;;;14.78;56.97
70256;BME280;57669;52.624;-1.688;2022-08-21T07:07:20;100863.96;;;14.26;58.09
70256;BME280;57669;52.624;-1.688;2022-08-21T07:09:46;100867.37;;;13.92;58.34
70256;BME280;57669;52.624;-1.688;2022-08-21T07:12:12;100873.69;;;13.72;59.62
70256;BME280;57669;52.624;-1.688;2022-08-21T07:14:37;100878.28;;;14.20;59.61
70256;BME280;57669;52.624;-1.688;2022-08-21T07:17:03;100884.43;;;13.46;60.23
70256;BME280;57669;52.624;-1.688;2022-08-21T07:19:29;100886.20;;;13.90;59.53
70256;BME280;57669;52.624;-1.688;2022-08-21T07:21:59;100881.81;;;14.72;57.90
70256;BME280;57669;52.624;-1.688;2022-08-21T07:24:20;100883.97;;;14.19;58.81
70256;BME280;57669;52.624;-1.688;2022-08-21T07:26:46;100890.93;;;13.82;58.95
70256;BME280;57669;52.624;-1.688;2022-08-21T07:29:11;100888.93;;;14.81;56.96
70256;BME280;57669;52.624;-1.688;2022-08-21T07:31:37;100891.56;;;14.75;56.58
70256;BME280;57669;52.624;-1.688;2022-08-21T07:34:03;100889.27;;;13.70;58.39
70256;BME280;57669;52.624;-1.688;2022-08-21T07:36:28;100896.79;;;14.63;56.95
70256;BME280;57669;52.624;-1.688;2022-08-21T07:38:54;100900.55;;;14.93;56.71
70256;BME280;57669;52.624;-1.688;2022-08-21T07:41:22;100899.33;;;14.79;57.72
70256;BME280;57669;52.624;-1.688;2022-08-21T07:43:45;100903.66;;;15.05;55.27
70256;BME280;57669;52.624;-1.688;2022-08-21T07:46:11;100902.17;;;15.05;55.29
70256;BME280;57669;52.624;-1.688;2022-08-21T07:48:37;100901.12;;;14.98;55.53
70256;BME280;57669;52.624;-1.688;2022-08-21T07:51:05;100898.54;;;16.15;53.15
70256;BME280;57669;52.624;-1.688;2022-08-21T07:53:27;100899.50;;;16.55;52.06
70256;BME280;57669;52.624;-1.688;2022-08-21T07:55:53;100898.69;;;16.07;52.02
70256;BME280;57669;52.624;-1.688;2022-08-21T07:58:18;100899.15;;;15.68;52.83
70256;BME280;57669;52.624;-1.688;2022-08-21T08:00:44;100898.44;;;16.59;51.34
70256;BME280;57669;52.624;-1.688;2022-08-21T08:03:10;100900.83;;;16.45;50.98
70256;BME280;57669;52.624;-1.688;2022-08-21T08:05:36;100905.24;;;17.13;49.27
70256;BME280;57669;52.624;-1.688;2022-08-21T08:08:01;100899.33;;;17.12;49.50
70256;BME280;57669;52.624;-1.688;2022-08-21T08:10:27;100898.98;;;16.41;50.25
70256;BME280;57669;52.624;-1.688;2022-08-21T08:12:53;100902.75;;;16.54;49.81
70256;BME280;57669;52.624;-1.688;2022-08-21T08:15:21;100906.77;;;17.26;48.12
70256;BME280;57669;52.624;-1.688;2022-08-21T08:17:44;100904.33;;;17.09;48.49
70256;BME280;57669;52.624;-1.688;2022-08-21T08:20:12;100892.43;;;16.31;48.90
70256;BME280;57669;52.624;-1.688;2022-08-21T08:22:37;100893.16;;;16.64;48.15
70256;BME280;57669;52.624;-1.688;2022-08-21T08:25:01;100893.87;;;16.89;47.80
70256;BME280;57669;52.624;-1.688;2022-08-21T08:27:27;100888.07;;;16.09;48.38
70256;BME280;57669;52.624;-1.688;2022-08-21T08:29:52;100885.43;;;16.64;47.20
70256;BME280;57669;52.624;-1.688;2022-08-21T08:32:18;100885.92;;;16.61;48.99
70256;BME280;57669;52.624;-1.688;2022-08-21T08:34:43;100888.75;;;16.81;47.81
70256;BME280;57669;52.624;-1.688;2022-08-21T08:37:09;100890.18;;;17.01;46.63
70256;BME280;57669;52.624;-1.688;2022-08-21T08:39:34;100887.38;;;16.84;47.15
70256;BME280;57669;52.624;-1.688;2022-08-21T08:42:05;100886.01;;;16.55;46.44
70256;BME280;57669;52.624;-1.688;2022-08-21T08:44:26;100881.91;;;17.30;45.96
70256;BME280;57669;52.624;-1.688;2022-08-21T08:46:51;100889.19;;;17.42;45.33
70256;BME280;57669;52.624;-1.688;2022-08-21T08:49:20;100888.51;;;17.79;44.37
70256;BME280;57669;52.624;-1.688;2022-08-21T08:51:46;100883.97;;;18.04;43.35
70256;BME280;57669;52.624;-1.688;2022-08-21T08:54:12;100879.04;;;18.28;43.87
70256;BME280;57669;52.624;-1.688;2022-08-21T08:56:35;100879.71;;;18.41;43.70
70256;BME280;57669;52.624;-1.688;2022-08-21T08:59:06;100888.21;;;17.75;45.11
70256;BME280;57669;52.624;-1.688;2022-08-21T09:01:25;100884.62;;;18.27;44.28
70256;BME280;57669;52.624;-1.688;2022-08-21T09:03:51;100882.61;;;18.54;43.04
70256;BME280;57669;52.624;-1.688;2022-08-21T09:06:26;100887.53;;;18.44;42.40
70256;BME280;57669;52.624;-1.688;2022-08-21T09:08:49;100885.11;;;18.81;42.30
70256;BME280;57669;52.624;-1.688;2022-08-21T09:11:11;100889.92;;;18.75;42.53
70256;BME280;57669;52.624;-1.688;2022-08-21T09:13:43;100892.58;;;19.07;41.60
70256;BME280;57669;52.624;-1.688;2022-08-21T09:16:05;100888.46;;;19.53;40.73
70256;BME280;57669;52.624;-1.688;2022-08-21T09:18:34;100898.37;;;17.95;43.52
70256;BME280;57669;52.624;-1.688;2022-08-21T09:21:00;100893.98;;;17.93;43.05
70256;BME280;57669;52.624;-1.688;2022-08-21T09:23:25;100897.37;;;17.49;44.41
70256;BME280;57669;52.624;-1.688;2022-08-21T09:25:45;100895.60;;;17.17;44.87
70256;BME280;57669;52.624;-1.688;2022-08-21T09:28:07;100887.68;;;17.83;43.84
70256;BME280;57669;52.624;-1.688;2022-08-21T09:30:32;100883.84;;;19.15;41.85
70256;BME280;57669;52.624;-1.688;2022-08-21T09:32:58;100887.02;;;17.89;44.33
70256;BME280;57669;52.624;-1.688;2022-08-21T09:35:24;100885.43;;;18.63;43.04
70256;BME280;57669;52.624;-1.688;2022-08-21T09:37:51;100894.02;;;17.78;44.23
70256;BME280;57669;52.624;-1.688;2022-08-21T09:40:20;100884.52;;;18.34;43.55
70256;BME280;57669;52.624;-1.688;2022-08-21T09:42:40;100889.14;;;18.23;43.17
70256;BME280;57669;52.624;-1.688;2022-08-21T09:45:11;100890.91;;;18.72;42.05
70256;BME280;57669;52.624;-1.688;2022-08-21T09:47:31;100902.99;;;19.43;41.91
70256;BME280;57669;52.624;-1.688;2022-08-21T09:52:24;100904.40;;;19.93;40.13
70256;BME280;57669;52.624;-1.688;2022-08-21T09:54:51;100905.11;;;18.98;41.64
70256;BME280;57669;52.624;-1.688;2022-08-21T09:57:18;100907.54;;;19.52;41.09
70256;BME280;57669;52.624;-1.688;2022-08-21T09:59:40;100905.46;;;19.57;40.65
70256;BME280;57669;52.624;-1.688;2022-08-21T10:04:32;100893.31;;;20.25;39.59
70256;BME280;57669;52.624;-1.688;2022-08-21T10:09:21;100884.17;;;19.37;40.24
70256;BME280;57669;52.624;-1.688;2022-08-21T10:11:53;100887.90;;;20.44;39.55
70256;BME280;57669;52.624;-1.688;2022-08-21T10:14:18;100895.14;;;20.79;38.50
70256;BME280;57669;52.624;-1.688;2022-08-21T10:16:47;100888.30;;;20.72;38.34
70256;BME280;57669;52.624;-1.688;2022-08-21T10:19:14;100887.82;;;20.54;37.87
70256;BME280;57669;52.624;-1.688;2022-08-21T10:21:35;100886.16;;;20.88;38.13
70256;BME280;57669;52.624;-1.688;2022-08-21T10:24:04;100892.63;;;20.30;38.58
70256;BME280;57669;52.624;-1.688;2022-08-21T10:26:33;100888.62;;;20.63;38.93
70256;BME280;57669;52.624;-1.688;2022-08-21T10:28:53;100892.31;;;19.92;38.79
70256;BME280;57669;52.624;-1.688;2022-08-21T10:31:18;100889.23;;;20.39;38.42
70256;BME280;57669;52.624;-1.688;2022-08-21T10:33:43;100887.25;;;20.21;38.83
70256;BME280;57669;52.624;-1.688;2022-08-21T10:36:10;100886.63;;;20.51;38.34
70256;BME280;57669;52.624;-1.688;2022-08-21T10:38:38;100882.60;;;20.01;39.03
70256;BME280;57669;52.624;-1.688;2022-08-21T10:40:59;100891.48;;;20.45;38.68
70256;BME280;57669;52.624;-1.688;2022-08-21T10:43:24;100891.52;;;20.29;38.32
70256;BME280;57669;52.624;-1.688;2022-08-21T10:45:55;100892.21;;;20.05;38.87
70256;BME280;57669;52.624;-1.688;2022-08-21T10:48:17;100889.02;;;20.37;38.70
70256;BME280;57669;52.624;-1.688;2022-08-21T10:50:42;100896.42;;;19.39;40.45
70256;BME280;57669;52.624;-1.688;2022-08-21T10:53:13;100899.65;;;19.21;40.26
70256;BME280;57669;52.624;-1.688;2022-08-21T10:55:32;100893.27;;;20.67;38.89
70256;BME280;57669;52.624;-1.688;2022-08-21T10:57:57;100891.35;;;20.66;38.00
70256;BME280;57669;52.624;-1.688;2022-08-21T11:05:13;100885.99;;;20.15;39.57
70256;BME280;57669;52.624;-1.688;2022-08-21T11:07:39;100887.13;;;21.96;36.29
70256;BME280;57669;52.624;-1.688;2022-08-21T11:10:08;100887.15;;;22.05;36.24
70256;BME280;57669;52.624;-1.688;2022-08-21T11:12:33;100882.29;;;22.16;35.80
70256;BME280;57669;52.624;-1.688;2022-08-21T11:14:57;100879.37;;;22.42;35.20
70256;BME280;57669;52.624;-1.688;2022-08-21T11:17:24;100884.55;;;22.11;35.01
70256;BME280;57669;52.624;-1.688;2022-08-21T11:19:47;100885.66;;;22.86;34.65
70256;BME280;57669;52.624;-1.688;2022-08-21T11:22:15;100890.36;;;21.99;34.88
70256;BME280;57669;52.624;-1.688;2022-08-21T11:24:41;100884.86;;;22.16;34.99
70256;BME280;57669;52.624;-1.688;2022-08-21T11:27:04;100891.17;;;21.25;35.84
70256;BME280;57669;52.624;-1.688;2022-08-21T11:29:29;100891.12;;;21.09;36.87
70256;BME280;57669;52.624;-1.688;2022-08-21T11:32:02;100897.10;;;21.91;35.60
70256;BME280;57669;52.624;-1.688;2022-08-21T11:34:28;100893.19;;;21.28;36.31
70256;BME280;57669;52.624;-1.688;2022-08-21T11:36:51;100890.49;;;21.95;35.73
70256;BME280;57669;52.624;-1.688;2022-08-21T11:39:17;100897.58;;;21.95;36.50
70256;BME280;57669;52.624;-1.688;2022-08-21T11:41:38;100887.12;;;22.43;34.42
70256;BME280;57669;52.624;-1.688;2022-08-21T11:44:07;100883.81;;;22.56;33.84
70256;BME280;57669;52.624;-1.688;2022-08-21T11:46:31;100888.38;;;21.33;35.73
70256;BME280;57669;52.624;-1.688;2022-08-21T11:49:01;100893.03;;;21.43;36.42
70256;BME280;57669;52.624;-1.688;2022-08-21T11:51:21;100890.69;;;21.81;36.28
70256;BME280;57669;52.624;-1.688;2022-08-21T11:53:47;100888.65;;;21.38;36.46
70256;BME280;57669;52.624;-1.688;2022-08-21T11:56:12;100887.22;;;21.73;36.03
70256;BME280;57669;52.624;-1.688;2022-08-21T11:58:37;100887.09;;;21.76;35.74
70256;BME280;57669;52.624;-1.688;2022-08-21T12:01:03;100894.04;;;21.17;36.58
70256;BME280;57669;52.624;-1.688;2022-08-21T12:03:27;100894.38;;;21.72;35.76
70256;BME280;57669;52.624;-1.688;2022-08-21T12:05:54;100887.65;;;20.94;36.46
70256;BME280;57669;52.624;-1.688;2022-08-21T12:08:27;100890.36;;;21.25;35.90
70256;BME280;57669;52.624;-1.688;2022-08-21T12:10:58;100890.35;;;21.17;35.87
70256;BME280;57669;52.624;-1.688;2022-08-21T12:13:10;100887.33;;;21.22;35.70
70256;BME280;57669;52.624;-1.688;2022-08-21T12:15:32;100887.21;;;21.05;37.27
70256;BME280;57669;52.624;-1.688;2022-08-21T12:18:00;100888.56;;;20.81;39.54
70256;BME280;57669;52.624;-1.688;2022-08-21T12:22:52;100887.07;;;21.88;38.71
70256;BME280;57669;52.624;-1.688;2022-08-21T12:25:17;100873.98;;;22.55;36.03
70256;BME280;57669;52.624;-1.688;2022-08-21T12:27:46;100876.70;;;22.77;35.62
70256;BME280;57669;52.624;-1.688;2022-08-21T12:35:04;100879.07;;;22.45;34.88
70256;BME280;57669;52.624;-1.688;2022-08-21T12:37:30;100880.59;;;22.84;34.93
70256;BME280;57669;52.624;-1.688;2022-08-21T12:39:51;100876.55;;;22.31;35.42
70256;BME280;57669;52.624;-1.688;2022-08-21T12:42:18;100878.59;;;22.69;35.01
70256;BME280;57669;52.624;-1.688;2022-08-21T12:44:45;100879.43;;;22.31;35.14
70256;BME280;57669;52.624;-1.688;2022-08-21T12:47:13;100881.24;;;22.46;34.40
70256;BME280;57669;52.624;-1.688;2022-08-21T12:49:34;100878.67;;;23.47;32.92
70256;BME280;57669;52.624;-1.688;2022-08-21T12:52:02;100874.16;;;22.97;33.99
70256;BME280;57669;52.624;-1.688;2022-08-21T12:54:25;100877.70;;;23.79;32.75
70256;BME280;57669;52.624;-1.688;2022-08-21T12:56:56;100884.38;;;22.59;33.93
70256;BME280;57669;52.624;-1.688;2022-08-21T12:59:12;100881.62;;;23.43;32.66